Norway, MI (49870)

08:41 AM CST on Δεκέμβριος 10, 2016 (GMT -0600)
Downtown | | Change Station

Elev 942 ft 45.79 °N, 87.91 °W | Updated 9 seconds ago

Αίθριος
Αίθριος
10.9 ° F
Feels Like -6 ° F
N
16.1
Ανεμος Μεταβλητός Ανεμος from ΒΔ
Gusts 16.1 mph

Σήμερα
High -- | Low -- ° F
--% Chance of Precip.
Yesterday
High -- | Low -- ° F
Precip. -- in
Ατμοσφαιρική Πίεση 30.44 in
Ορατότητα 10.0 Μίλια
Σύννεφα Αίθριος
Δείκτης Ψυχρότητας -6 ° F
Σημείο Δρόσου 2 ° F
Υγρασία 68%
Rainfall 0.00 in
Snow Depth Not available.
7:22 AM 4:07 PM
Αμφίκυρτος, 84% visible
METAR KIMT 101354Z AUTO 28006KT 10SM CLR M14/M19 A3035 RMK AO2 SLP307 T11391194
Ατμοσφαιρική Πίεση 30.44 in
Ορατότητα 10.0 Μίλια
Σύννεφα Αίθριος
Δείκτης Ψυχρότητας -6 ° F
Σημείο Δρόσου 2 ° F
Υγρασία 68%
Rainfall 0.00 in
Snow Depth Not available.
7:22 AM 4:07 PM
Αμφίκυρτος, 84% visible
METAR KIMT 101354Z AUTO 28006KT 10SM CLR M14/M19 A3035 RMK AO2 SLP307 T11391194

10-Day Weather Forecast

Almanac

Αστρονομία

Dec. 10, 2016 Rise Set
Actual Time
Civil Twilight
Nautical Twilight
Astronomical Twilight
Moon
Length Of Visible Light
Διάρκεια ημέρας
Tomorrow will be .
, % of the Moon is Illuminated

Today's Extremes

State Highs State Lows

Community

WunderPhotos

Upload Photos

1,956,549 photos uploaded!

WunderBlog® & News

Nearby

Air Quality

  Air Quality AQ Index Pollutant
Not available.

Snow Depth

Station Depth Elevation

Earthquake Activity

City Distance Mag. Time & Date
Minimum magnitude displayed is 2.5.

Coastal Water Temperatures

Τοποθεσία Θερμοκρασία

Stations

Nearby Weather Stations

Station Location Temp Δείκτης Ψυχρότητας Σημείο Δρόσου Υγρασία Ανεμος Precip. Elev Ενημερώθηκε Type
                   

Watches & Warnings

There are currently no watches in effect.